sensor_id;sensor_type;location;lat;lon;timestamp;pressure;altitude;pressure_sealevel;temperature;humidity
24160;BME280;62385;41.594;23.808;2023-02-28T00:00:29;95821.47;;;10.11;70.64
24160;BME280;62385;41.594;23.808;2023-02-28T00:02:56;95819.81;;;10.02;70.89
24160;BME280;62385;41.594;23.808;2023-02-28T00:05:22;95811.13;;;9.92;70.81
24160;BME280;62385;41.594;23.808;2023-02-28T00:07:50;95817.34;;;9.49;73.02
24160;BME280;62385;41.594;23.808;2023-02-28T00:10:21;95814.88;;;9.47;73.49
24160;BME280;62385;41.594;23.808;2023-02-28T00:12:49;95814.59;;;9.58;73.18
24160;BME280;62385;41.594;23.808;2023-02-28T00:15:15;95816.56;;;9.90;71.17
24160;BME280;62385;41.594;23.808;2023-02-28T00:17:42;95827.56;;;9.69;71.76
24160;BME280;62385;41.594;23.808;2023-02-28T00:20:08;95832.69;;;9.63;71.97
24160;BME280;62385;41.594;23.808;2023-02-28T00:22:36;95810.22;;;9.23;73.85
24160;BME280;62385;41.594;23.808;2023-02-28T00:25:03;95812.88;;;9.49;71.90
24160;BME280;62385;41.594;23.808;2023-02-28T00:27:30;95808.91;;;9.02;72.14
24160;BME280;62385;41.594;23.808;2023-02-28T00:29:55;95824.47;;;9.05;71.54
24160;BME280;62385;41.594;23.808;2023-02-28T00:32:21;95827.16;;;9.31;70.65
24160;BME280;62385;41.594;23.808;2023-02-28T00:34:46;95826.72;;;9.17;72.00
24160;BME280;62385;41.594;23.808;2023-02-28T00:37:13;95822.03;;;9.11;71.99
24160;BME280;62385;41.594;23.808;2023-02-28T00:39:40;95820.50;;;8.65;73.65
24160;BME280;62385;41.594;23.808;2023-02-28T00:42:07;95823.25;;;8.46;74.67
24160;BME280;62385;41.594;23.808;2023-02-28T00:44:33;95816.69;;;8.50;74.94
24160;BME280;62385;41.594;23.808;2023-02-28T00:46:59;95820.78;;;8.80;73.36
24160;BME280;62385;41.594;23.808;2023-02-28T00:49:26;95808.91;;;8.84;73.76
24160;BME280;62385;41.594;23.808;2023-02-28T00:51:53;95809.56;;;9.04;73.70
24160;BME280;62385;41.594;23.808;2023-02-28T00:54:20;95811.63;;;8.92;73.45
24160;BME280;62385;41.594;23.808;2023-02-28T00:56:47;95818.56;;;8.58;73.44
24160;BME280;62385;41.594;23.808;2023-02-28T00:59:13;95822.31;;;8.65;73.80
24160;BME280;62385;41.594;23.808;2023-02-28T01:01:40;95820.19;;;8.86;73.17
24160;BME280;62385;41.594;23.808;2023-02-28T01:04:05;95818.34;;;9.04;72.83
24160;BME280;62385;41.594;23.808;2023-02-28T01:06:31;95826.00;;;8.90;72.08
24160;BME280;62385;41.594;23.808;2023-02-28T01:08:58;95828.59;;;8.82;72.80
24160;BME280;62385;41.594;23.808;2023-02-28T01:11:24;95830.22;;;8.82;73.50
24160;BME280;62385;41.594;23.808;2023-02-28T01:13:52;95821.63;;;8.98;71.63
24160;BME280;62385;41.594;23.808;2023-02-28T01:16:17;95811.56;;;8.66;72.35
24160;BME280;62385;41.594;23.808;2023-02-28T01:18:44;95811.25;;;8.52;72.39
24160;BME280;62385;41.594;23.808;2023-02-28T01:21:13;95796.13;;;8.44;71.85
24160;BME280;62385;41.594;23.808;2023-02-28T01:23:40;95814.41;;;8.38;74.12
24160;BME280;62385;41.594;23.808;2023-02-28T01:26:07;95818.59;;;8.75;73.88
24160;BME280;62385;41.594;23.808;2023-02-28T01:28:34;95823.72;;;9.12;72.34
24160;BME280;62385;41.594;23.808;2023-02-28T01:30:59;95824.22;;;9.16;71.42
24160;BME280;62385;41.594;23.808;2023-02-28T01:33:25;95834.22;;;9.04;70.95
24160;BME280;62385;41.594;23.808;2023-02-28T01:36:22;95833.03;;;8.63;71.99
24160;BME280;62385;41.594;23.808;2023-02-28T01:38:48;95843.31;;;8.84;71.73
24160;BME280;62385;41.594;23.808;2023-02-28T01:41:17;95839.47;;;8.96;71.03
24160;BME280;62385;41.594;23.808;2023-02-28T01:46:09;95847.72;;;8.93;71.10
24160;BME280;62385;41.594;23.808;2023-02-28T01:48:39;95856.50;;;8.94;71.50
24160;BME280;62385;41.594;23.808;2023-02-28T01:51:13;95850.97;;;8.69;70.88
24160;BME280;62385;41.594;23.808;2023-02-28T01:53:49;95850.34;;;8.40;71.67
24160;BME280;62385;41.594;23.808;2023-02-28T01:56:21;95867.41;;;8.46;71.39
24160;BME280;62385;41.594;23.808;2023-02-28T01:58:50;95863.25;;;8.43;71.36
24160;BME280;62385;41.594;23.808;2023-02-28T02:01:18;95858.31;;;8.30;72.22
24160;BME280;62385;41.594;23.808;2023-02-28T02:03:51;95864.00;;;8.36;72.00
24160;BME280;62385;41.594;23.808;2023-02-28T02:06:27;95864.84;;;8.36;71.62
24160;BME280;62385;41.594;23.808;2023-02-28T02:08:54;95864.44;;;8.21;72.27
24160;BME280;62385;41.594;23.808;2023-02-28T02:11:22;95873.13;;;8.41;71.68
24160;BME280;62385;41.594;23.808;2023-02-28T02:16:52;95876.69;;;8.22;72.80
24160;BME280;62385;41.594;23.808;2023-02-28T02:22:33;95888.38;;;8.29;72.32
24160;BME280;62385;41.594;23.808;2023-02-28T02:25:14;95889.84;;;8.69;71.53
24160;BME280;62385;41.594;23.808;2023-02-28T02:38:50;95894.91;;;8.35;73.77
24160;BME280;62385;41.594;23.808;2023-02-28T02:44:05;95887.91;;;8.44;75.76
24160;BME280;62385;41.594;23.808;2023-02-28T02:46:41;95884.81;;;8.48;75.64
24160;BME280;62385;41.594;23.808;2023-02-28T02:49:10;95876.16;;;8.73;76.09
24160;BME280;62385;41.594;23.808;2023-02-28T02:51:40;95880.41;;;9.02;75.68
24160;BME280;62385;41.594;23.808;2023-02-28T02:54:23;95877.06;;;9.00;74.88
24160;BME280;62385;41.594;23.808;2023-02-28T02:56:58;95886.03;;;9.42;73.57
24160;BME280;62385;41.594;23.808;2023-02-28T02:59:26;95889.19;;;9.89;71.79
24160;BME280;62385;41.594;23.808;2023-02-28T03:02:00;95890.53;;;9.93;71.30
24160;BME280;62385;41.594;23.808;2023-02-28T03:04:32;95883.41;;;9.94;71.24
24160;BME280;62385;41.594;23.808;2023-02-28T03:06:59;95888.97;;;10.08;71.42
24160;BME280;62385;41.594;23.808;2023-02-28T03:09:26;95889.44;;;10.04;71.27
24160;BME280;62385;41.594;23.808;2023-02-28T03:11:54;95893.19;;;9.93;71.12
24160;BME280;62385;41.594;23.808;2023-02-28T03:22:23;95905.69;;;10.27;70.73
24160;BME280;62385;41.594;23.808;2023-02-28T03:30:58;95905.41;;;9.86;71.77
24160;BME280;62385;41.594;23.808;2023-02-28T03:33:44;95915.41;;;9.49;74.27
24160;BME280;62385;41.594;23.808;2023-02-28T03:36:17;95911.38;;;9.62;73.93
24160;BME280;62385;41.594;23.808;2023-02-28T03:38:49;95917.03;;;9.67;73.15
24160;BME280;62385;41.594;23.808;2023-02-28T03:41:23;95917.91;;;9.50;74.20
24160;BME280;62385;41.594;23.808;2023-02-28T03:44:06;95912.53;;;9.60;73.46
24160;BME280;62385;41.594;23.808;2023-02-28T03:46:38;95920.38;;;9.95;72.88
24160;BME280;62385;41.594;23.808;2023-02-28T03:49:16;95924.16;;;10.44;71.37
24160;BME280;62385;41.594;23.808;2023-02-28T03:51:43;95930.19;;;10.03;72.40
24160;BME280;62385;41.594;23.808;2023-02-28T03:54:19;95919.53;;;9.95;72.60
24160;BME280;62385;41.594;23.808;2023-02-28T03:56:57;95921.56;;;10.18;72.40
24160;BME280;62385;41.594;23.808;2023-02-28T03:59:29;95917.50;;;10.40;71.50
24160;BME280;62385;41.594;23.808;2023-02-28T04:01:58;95911.13;;;10.25;71.21
24160;BME280;62385;41.594;23.808;2023-02-28T04:04:24;95917.69;;;10.39;71.48
24160;BME280;62385;41.594;23.808;2023-02-28T04:06:51;95912.19;;;10.40;71.02
24160;BME280;62385;41.594;23.808;2023-02-28T04:09:17;95923.69;;;10.49;69.83
24160;BME280;62385;41.594;23.808;2023-02-28T04:11:45;95917.16;;;10.09;71.78
24160;BME280;62385;41.594;23.808;2023-02-28T04:14:14;95925.84;;;10.19;71.72
24160;BME280;62385;41.594;23.808;2023-02-28T04:16:41;95931.34;;;10.18;71.35
24160;BME280;62385;41.594;23.808;2023-02-28T04:19:08;95932.91;;;10.11;72.02
24160;BME280;62385;41.594;23.808;2023-02-28T04:21:39;95932.38;;;10.07;72.12
24160;BME280;62385;41.594;23.808;2023-02-28T04:24:07;95935.84;;;10.26;71.90
24160;BME280;62385;41.594;23.808;2023-02-28T04:26:35;95933.00;;;10.27;71.27
24160;BME280;62385;41.594;23.808;2023-02-28T04:29:03;95932.25;;;10.09;71.47
24160;BME280;62385;41.594;23.808;2023-02-28T04:31:29;95949.34;;;10.14;72.57
24160;BME280;62385;41.594;23.808;2023-02-28T04:33:55;95944.81;;;10.07;71.98
24160;BME280;62385;41.594;23.808;2023-02-28T04:36:21;95942.88;;;9.91;73.27
24160;BME280;62385;41.594;23.808;2023-02-28T04:38:50;95941.34;;;9.81;72.24
24160;BME280;62385;41.594;23.808;2023-02-28T04:41:16;95943.66;;;9.84;72.48
24160;BME280;62385;41.594;23.808;2023-02-28T04:43:43;95950.75;;;10.01;71.49
24160;BME280;62385;41.594;23.808;2023-02-28T04:46:08;95946.53;;;9.90;71.96
24160;BME280;62385;41.594;23.808;2023-02-28T04:48:36;95945.22;;;9.68;72.87
24160;BME280;62385;41.594;23.808;2023-02-28T04:51:08;95947.34;;;9.91;72.44
24160;BME280;62385;41.594;23.808;2023-02-28T04:53:35;95947.19;;;10.10;71.17
24160;BME280;62385;41.594;23.808;2023-02-28T04:56:01;95943.25;;;9.96;72.12
24160;BME280;62385;41.594;23.808;2023-02-28T04:58:27;95942.94;;;9.99;71.37
24160;BME280;62385;41.594;23.808;2023-02-28T05:00:53;95935.97;;;9.98;71.19
24160;BME280;62385;41.594;23.808;2023-02-28T05:03:20;95945.50;;;9.83;71.97
24160;BME280;62385;41.594;23.808;2023-02-28T05:05:47;95948.16;;;9.65;72.80
24160;BME280;62385;41.594;23.808;2023-02-28T05:08:13;95952.88;;;9.54;72.73
24160;BME280;62385;41.594;23.808;2023-02-28T05:10:39;95952.47;;;9.66;72.11
24160;BME280;62385;41.594;23.808;2023-02-28T05:13:05;95943.66;;;9.84;71.75
24160;BME280;62385;41.594;23.808;2023-02-28T05:15:30;95958.25;;;9.62;72.32
24160;BME280;62385;41.594;23.808;2023-02-28T05:17:56;95957.34;;;9.53;72.60
24160;BME280;62385;41.594;23.808;2023-02-28T05:20:22;95961.28;;;9.67;72.25
24160;BME280;62385;41.594;23.808;2023-02-28T05:22:47;95956.81;;;9.67;71.25
24160;BME280;62385;41.594;23.808;2023-02-28T05:25:19;95954.63;;;9.63;72.53
24160;BME280;62385;41.594;23.808;2023-02-28T05:28:05;95965.34;;;9.79;72.35
24160;BME280;62385;41.594;23.808;2023-02-28T05:30:31;95965.66;;;9.76;72.39
24160;BME280;62385;41.594;23.808;2023-02-28T05:32:57;95959.53;;;9.76;72.19
24160;BME280;62385;41.594;23.808;2023-02-28T05:35:23;95960.59;;;10.08;71.51
24160;BME280;62385;41.594;23.808;2023-02-28T05:37:49;95970.03;;;9.85;72.43
24160;BME280;62385;41.594;23.808;2023-02-28T05:40:15;95971.69;;;9.86;71.96
24160;BME280;62385;41.594;23.808;2023-02-28T05:42:41;95969.31;;;10.01;72.23
24160;BME280;62385;41.594;23.808;2023-02-28T05:45:08;95985.19;;;9.93;72.06
24160;BME280;62385;41.594;23.808;2023-02-28T05:47:34;95991.53;;;10.00;72.55
24160;BME280;62385;41.594;23.808;2023-02-28T05:50:00;95986.91;;;10.02;72.30
24160;BME280;62385;41.594;23.808;2023-02-28T05:52:27;95986.22;;;10.17;71.55
24160;BME280;62385;41.594;23.808;2023-02-28T05:54:53;95989.91;;;9.81;72.48
24160;BME280;62385;41.594;23.808;2023-02-28T05:57:18;95997.16;;;9.61;73.89
24160;BME280;62385;41.594;23.808;2023-02-28T05:59:44;95987.41;;;9.62;73.33
24160;BME280;62385;41.594;23.808;2023-02-28T06:02:14;95990.88;;;9.80;73.13
24160;BME280;62385;41.594;23.808;2023-02-28T06:04:40;95989.50;;;9.94;72.90
24160;BME280;62385;41.594;23.808;2023-02-28T06:07:07;96003.28;;;9.97;72.49
24160;BME280;62385;41.594;23.808;2023-02-28T06:09:33;95997.59;;;9.92;72.13
24160;BME280;62385;41.594;23.808;2023-02-28T06:11:59;96003.31;;;9.80;73.03
24160;BME280;62385;41.594;23.808;2023-02-28T06:14:25;96006.47;;;9.65;73.91
24160;BME280;62385;41.594;23.808;2023-02-28T06:16:51;96003.97;;;9.82;73.38
24160;BME280;62385;41.594;23.808;2023-02-28T06:19:17;96004.97;;;9.81;73.97
24160;BME280;62385;41.594;23.808;2023-02-28T06:21:43;96003.56;;;10.63;71.48
24160;BME280;62385;41.594;23.808;2023-02-28T06:24:09;96011.03;;;10.34;71.96
24160;BME280;62385;41.594;23.808;2023-02-28T06:26:35;96007.28;;;10.01;73.82
24160;BME280;62385;41.594;23.808;2023-02-28T06:29:01;96012.53;;;9.93;73.97
24160;BME280;62385;41.594;23.808;2023-02-28T06:31:28;96009.44;;;10.75;71.55
24160;BME280;62385;41.594;23.808;2023-02-28T06:33:54;96009.50;;;10.32;72.30
24160;BME280;62385;41.594;23.808;2023-02-28T06:36:21;95999.19;;;10.54;72.23
24160;BME280;62385;41.594;23.808;2023-02-28T06:38:46;96003.25;;;11.08;70.60
24160;BME280;62385;41.594;23.808;2023-02-28T06:41:17;95999.38;;;11.53;69.21
24160;BME280;62385;41.594;23.808;2023-02-28T06:43:43;95984.56;;;12.39;66.21
24160;BME280;62385;41.594;23.808;2023-02-28T06:46:11;95990.72;;;12.48;65.95
24160;BME280;62385;41.594;23.808;2023-02-28T06:48:38;95987.91;;;12.88;64.66
24160;BME280;62385;41.594;23.808;2023-02-28T06:51:19;95992.72;;;12.54;65.99
24160;BME280;62385;41.594;23.808;2023-02-28T06:53:48;95997.78;;;12.72;65.02
24160;BME280;62385;41.594;23.808;2023-02-28T06:56:15;95999.13;;;12.76;64.70
24160;BME280;62385;41.594;23.808;2023-02-28T06:58:41;96004.59;;;12.82;64.54
24160;BME280;62385;41.594;23.808;2023-02-28T07:01:08;96001.59;;;12.85;65.23
24160;BME280;62385;41.594;23.808;2023-02-28T07:03:37;96004.38;;;12.45;66.77
24160;BME280;62385;41.594;23.808;2023-02-28T07:06:04;96001.28;;;12.72;65.24
24160;BME280;62385;41.594;23.808;2023-02-28T07:08:29;96001.53;;;12.38;66.32
24160;BME280;62385;41.594;23.808;2023-02-28T07:10:57;95993.75;;;12.84;65.13
24160;BME280;62385;41.594;23.808;2023-02-28T07:13:23;96000.88;;;13.00;64.17
24160;BME280;62385;41.594;23.808;2023-02-28T07:16:01;95997.66;;;12.65;65.34
24160;BME280;62385;41.594;23.808;2023-02-28T07:18:28;96003.94;;;12.80;64.83
24160;BME280;62385;41.594;23.808;2023-02-28T07:20:53;95999.66;;;12.55;66.54
24160;BME280;62385;41.594;23.808;2023-02-28T07:23:19;96006.31;;;12.75;65.68
24160;BME280;62385;41.594;23.808;2023-02-28T07:25:46;96001.09;;;12.82;66.60
24160;BME280;62385;41.594;23.808;2023-02-28T07:28:12;95997.88;;;13.03;65.50
24160;BME280;62385;41.594;23.808;2023-02-28T07:30:38;95997.03;;;13.02;65.11
24160;BME280;62385;41.594;23.808;2023-02-28T07:33:04;96002.84;;;13.06;64.98
24160;BME280;62385;41.594;23.808;2023-02-28T07:35:30;96016.22;;;12.89;65.29
24160;BME280;62385;41.594;23.808;2023-02-28T07:37:57;96008.63;;;12.78;65.92
24160;BME280;62385;41.594;23.808;2023-02-28T07:40:23;96015.16;;;12.60;67.03
24160;BME280;62385;41.594;23.808;2023-02-28T07:42:49;96016.38;;;12.33;67.82
24160;BME280;62385;41.594;23.808;2023-02-28T07:45:16;96022.00;;;12.54;67.40
24160;BME280;62385;41.594;23.808;2023-02-28T07:47:43;96011.75;;;12.82;66.00
24160;BME280;62385;41.594;23.808;2023-02-28T07:50:12;96012.84;;;12.57;66.95
24160;BME280;62385;41.594;23.808;2023-02-28T07:52:39;96020.19;;;12.22;68.33
24160;BME280;62385;41.594;23.808;2023-02-28T07:55:06;96009.06;;;12.90;66.06
24160;BME280;62385;41.594;23.808;2023-02-28T07:57:32;96008.03;;;12.99;65.99
24160;BME280;62385;41.594;23.808;2023-02-28T07:59:57;96000.97;;;13.99;62.73
24160;BME280;62385;41.594;23.808;2023-02-28T08:02:24;96000.16;;;13.98;62.45
24160;BME280;62385;41.594;23.808;2023-02-28T08:04:50;96000.78;;;13.55;63.81
24160;BME280;62385;41.594;23.808;2023-02-28T08:07:17;95984.59;;;13.79;63.14
24160;BME280;62385;41.594;23.808;2023-02-28T08:09:43;95991.53;;;14.48;61.94
24160;BME280;62385;41.594;23.808;2023-02-28T08:12:11;95990.91;;;14.75;60.97
24160;BME280;62385;41.594;23.808;2023-02-28T08:14:37;95994.50;;;14.53;61.44
24160;BME280;62385;41.594;23.808;2023-02-28T08:17:03;95990.91;;;14.75;61.89
24160;BME280;62385;41.594;23.808;2023-02-28T08:19:29;95989.88;;;14.62;61.19
24160;BME280;62385;41.594;23.808;2023-02-28T08:21:55;95993.50;;;14.98;60.43
24160;BME280;62385;41.594;23.808;2023-02-28T08:24:21;95998.28;;;14.59;61.03
24160;BME280;62385;41.594;23.808;2023-02-28T08:26:48;95990.06;;;15.19;59.37
24160;BME280;62385;41.594;23.808;2023-02-28T08:29:13;95992.66;;;15.63;59.12
24160;BME280;62385;41.594;23.808;2023-02-28T08:31:39;95989.50;;;15.09;60.91
24160;BME280;62385;41.594;23.808;2023-02-28T08:34:08;95991.50;;;15.51;58.28
24160;BME280;62385;41.594;23.808;2023-02-28T08:36:35;95994.44;;;15.41;58.78
24160;BME280;62385;41.594;23.808;2023-02-28T08:39:00;95991.53;;;15.93;56.52
24160;BME280;62385;41.594;23.808;2023-02-28T08:41:26;95981.88;;;15.42;57.80
24160;BME280;62385;41.594;23.808;2023-02-28T08:43:52;95990.31;;;15.75;56.90
24160;BME280;62385;41.594;23.808;2023-02-28T08:46:19;95991.28;;;16.37;55.48
24160;BME280;62385;41.594;23.808;2023-02-28T08:48:44;95988.97;;;15.64;57.06
24160;BME280;62385;41.594;23.808;2023-02-28T08:51:16;95995.06;;;14.78;59.05
24160;BME280;62385;41.594;23.808;2023-02-28T08:53:44;95988.97;;;15.49;57.97
24160;BME280;62385;41.594;23.808;2023-02-28T08:56:12;95985.09;;;16.09;56.42
24160;BME280;62385;41.594;23.808;2023-02-28T08:58:38;95985.09;;;16.09;57.40
24160;BME280;62385;41.594;23.808;2023-02-28T09:01:12;95977.31;;;16.42;55.17
24160;BME280;62385;41.594;23.808;2023-02-28T09:03:39;95979.03;;;16.00;56.47
24160;BME280;62385;41.594;23.808;2023-02-28T09:06:07;95972.31;;;16.11;55.94
24160;BME280;62385;41.594;23.808;2023-02-28T09:08:33;95964.00;;;16.76;54.63
24160;BME280;62385;41.594;23.808;2023-02-28T09:10:59;95968.59;;;15.84;56.21
24160;BME280;62385;41.594;23.808;2023-02-28T09:13:26;95963.81;;;15.80;57.04
24160;BME280;62385;41.594;23.808;2023-02-28T09:15:53;95966.88;;;15.77;56.61
24160;BME280;62385;41.594;23.808;2023-02-28T09:18:20;95949.53;;;16.49;54.83
24160;BME280;62385;41.594;23.808;2023-02-28T09:20:46;95943.56;;;16.47;54.63
24160;BME280;62385;41.594;23.808;2023-02-28T09:23:12;95949.50;;;16.71;53.82
24160;BME280;62385;41.594;23.808;2023-02-28T09:25:51;95938.63;;;16.51;53.84
24160;BME280;62385;41.594;23.808;2023-02-28T09:28:17;95937.38;;;16.81;53.32
24160;BME280;62385;41.594;23.808;2023-02-28T09:30:49;95950.09;;;16.66;54.17
24160;BME280;62385;41.594;23.808;2023-02-28T09:33:16;95944.44;;;16.54;54.76
24160;BME280;62385;41.594;23.808;2023-02-28T09:35:42;95942.28;;;16.71;54.05
24160;BME280;62385;41.594;23.808;2023-02-28T09:38:09;95947.16;;;16.05;56.35
24160;BME280;62385;41.594;23.808;2023-02-28T09:40:37;95939.97;;;16.61;54.70
24160;BME280;62385;41.594;23.808;2023-02-28T09:43:04;95940.06;;;16.53;55.30
24160;BME280;62385;41.594;23.808;2023-02-28T09:45:35;95931.41;;;16.79;54.40
24160;BME280;62385;41.594;23.808;2023-02-28T09:48:23;95923.38;;;16.86;54.23
24160;BME280;62385;41.594;23.808;2023-02-28T09:51:03;95921.72;;;17.26;53.16
24160;BME280;62385;41.594;23.808;2023-02-28T09:53:32;95920.75;;;16.92;54.09
24160;BME280;62385;41.594;23.808;2023-02-28T09:56:18;95911.66;;;17.47;51.99
24160;BME280;62385;41.594;23.808;2023-02-28T09:58:56;95907.75;;;17.57;51.00
24160;BME280;62385;41.594;23.808;2023-02-28T10:01:42;95904.19;;;17.30;51.83
24160;BME280;62385;41.594;23.808;2023-02-28T10:10:04;95893.25;;;17.38;52.83
24160;BME280;62385;41.594;23.808;2023-02-28T10:12:31;95885.69;;;17.74;51.57
24160;BME280;62385;41.594;23.808;2023-02-28T10:14:59;95891.28;;;17.73;51.80
24160;BME280;62385;41.594;23.808;2023-02-28T10:17:37;95889.66;;;18.05;51.04
24160;BME280;62385;41.594;23.808;2023-02-28T10:20:23;95889.63;;;18.31;50.77
24160;BME280;62385;41.594;23.808;2023-02-28T10:23:04;95883.31;;;17.25;53.33
24160;BME280;62385;41.594;23.808;2023-02-28T10:25:37;95876.00;;;17.80;52.07
24160;BME280;62385;41.594;23.808;2023-02-28T10:28:14;95876.53;;;17.42;52.44
24160;BME280;62385;41.594;23.808;2023-02-28T10:30:43;95870.16;;;17.50;52.87
24160;BME280;62385;41.594;23.808;2023-02-28T10:33:31;95863.59;;;18.12;51.23
24160;BME280;62385;41.594;23.808;2023-02-28T10:35:57;95854.28;;;18.21;51.19
24160;BME280;62385;41.594;23.808;2023-02-28T10:38:25;95845.97;;;18.62;50.78
24160;BME280;62385;41.594;23.808;2023-02-28T10:41:03;95848.31;;;17.66;51.60
24160;BME280;62385;41.594;23.808;2023-02-28T10:43:29;95847.06;;;18.08;52.01
24160;BME280;62385;41.594;23.808;2023-02-28T10:48:50;95837.06;;;18.48;50.47
24160;BME280;62385;41.594;23.808;2023-02-28T10:51:22;95833.38;;;18.36;51.09
24160;BME280;62385;41.594;23.808;2023-02-28T10:53:50;95829.84;;;17.17;53.51
24160;BME280;62385;41.594;23.808;2023-02-28T10:56:19;95816.81;;;18.39;50.99
24160;BME280;62385;41.594;23.808;2023-02-28T11:01:44;95825.94;;;17.39;53.22
24160;BME280;62385;41.594;23.808;2023-02-28T11:04:32;95831.56;;;17.90;51.91
24160;BME280;62385;41.594;23.808;2023-02-28T11:07:00;95829.28;;;17.94;51.96
24160;BME280;62385;41.594;23.808;2023-02-28T11:09:30;95824.56;;;17.76;52.47
24160;BME280;62385;41.594;23.808;2023-02-28T11:11:58;95814.03;;;16.81;54.17
24160;BME280;62385;41.594;23.808;2023-02-28T11:14:26;95811.63;;;16.99;54.33
24160;BME280;62385;41.594;23.808;2023-02-28T11:16:54;95806.75;;;17.29;53.47
24160;BME280;62385;41.594;23.808;2023-02-28T11:19:26;95801.44;;;16.75;54.74
24160;BME280;62385;41.594;23.808;2023-02-28T11:21:59;95806.34;;;17.85;53.10
24160;BME280;62385;41.594;23.808;2023-02-28T11:24:28;95799.53;;;17.30;53.89
24160;BME280;62385;41.594;23.808;2023-02-28T11:26:56;95794.81;;;17.71;52.95
24160;BME280;62385;41.594;23.808;2023-02-28T11:29:25;95789.63;;;17.96;51.99
24160;BME280;62385;41.594;23.808;2023-02-28T11:34:36;95786.69;;;18.11;52.21
24160;BME280;62385;41.594;23.808;2023-02-28T11:37:05;95791.66;;;17.22;53.69
24160;BME280;62385;41.594;23.808;2023-02-28T11:39:32;95792.88;;;17.19;53.93
24160;BME280;62385;41.594;23.808;2023-02-28T11:44:52;95786.31;;;17.54;53.52
24160;BME280;62385;41.594;23.808;2023-02-28T11:53:24;95788.31;;;16.93;55.33
24160;BME280;62385;41.594;23.808;2023-02-28T11:58:51;95784.91;;;15.62;58.47
24160;BME280;62385;41.594;23.808;2023-02-28T12:06:52;95796.31;;;15.28;59.63
24160;BME280;62385;41.594;23.808;2023-02-28T12:15:05;95791.34;;;14.83;65.70
24160;BME280;62385;41.594;23.808;2023-02-28T12:17:50;95794.66;;;14.85;66.66
24160;BME280;62385;41.594;23.808;2023-02-28T12:23:21;95793.50;;;14.72;69.06
24160;BME280;62385;41.594;23.808;2023-02-28T12:29:21;95806.19;;;14.05;67.21
24160;BME280;62385;41.594;23.808;2023-02-28T12:31:56;95799.66;;;13.93;68.05
24160;BME280;62385;41.594;23.808;2023-02-28T12:34:32;95815.94;;;13.69;69.87
24160;BME280;62385;41.594;23.808;2023-02-28T12:37:02;95816.63;;;13.48;70.27
24160;BME280;62385;41.594;23.808;2023-02-28T12:39:33;95820.13;;;13.26;70.73
24160;BME280;62385;41.594;23.808;2023-02-28T12:42:05;95810.44;;;13.48;70.99
24160;BME280;62385;41.594;23.808;2023-02-28T12:44:40;95813.91;;;13.33;71.01
24160;BME280;62385;41.594;23.808;2023-02-28T12:47:14;95813.84;;;13.42;71.33
24160;BME280;62385;41.594;23.808;2023-02-28T12:49:52;95806.09;;;13.32;70.50
24160;BME280;62385;41.594;23.808;2023-02-28T12:52:35;95814.16;;;13.61;70.84
24160;BME280;62385;41.594;23.808;2023-02-28T12:55:15;95816.16;;;13.59;71.18
24160;BME280;62385;41.594;23.808;2023-02-28T12:58:05;95807.81;;;13.25;72.59
24160;BME280;62385;41.594;23.808;2023-02-28T13:00:36;95809.19;;;13.21;71.51
24160;BME280;62385;41.594;23.808;2023-02-28T13:03:14;95812.13;;;13.03;71.61
24160;BME280;62385;41.594;23.808;2023-02-28T13:08:53;95811.91;;;13.50;71.30
24160;BME280;62385;41.594;23.808;2023-02-28T13:11:29;95817.31;;;12.96;72.30
24160;BME280;62385;41.594;23.808;2023-02-28T13:14:02;95817.38;;;12.88;72.74
24160;BME280;62385;41.594;23.808;2023-02-28T13:27:51;95815.97;;;13.01;72.87
24160;BME280;62385;41.594;23.808;2023-02-28T13:38:39;95812.03;;;13.19;71.94
24160;BME280;62385;41.594;23.808;2023-02-28T13:44:16;95815.72;;;13.56;72.37
24160;BME280;62385;41.594;23.808;2023-02-28T13:52:00;95810.53;;;13.54;71.93
24160;BME280;62385;41.594;23.808;2023-02-28T13:57:19;95807.38;;;13.73;72.35
24160;BME280;62385;41.594;23.808;2023-02-28T14:00:07;95800.00;;;13.75;72.15
24160;BME280;62385;41.594;23.808;2023-02-28T14:05:18;95804.25;;;13.70;73.52
24160;BME280;62385;41.594;23.808;2023-02-28T14:07:50;95800.47;;;13.64;73.75
24160;BME280;62385;41.594;23.808;2023-02-28T14:10:23;95796.13;;;13.49;74.24
24160;BME280;62385;41.594;23.808;2023-02-28T14:16:01;95789.41;;;13.67;74.08
24160;BME280;62385;41.594;23.808;2023-02-28T14:18:34;95797.63;;;13.80;73.26
24160;BME280;62385;41.594;23.808;2023-02-28T14:21:27;95797.34;;;13.75;73.75
24160;BME280;62385;41.594;23.808;2023-02-28T14:35:22;95823.69;;;13.78;71.93
24160;BME280;62385;41.594;23.808;2023-02-28T14:37:53;95818.00;;;13.59;71.83
24160;BME280;62385;41.594;23.808;2023-02-28T14:40:39;95829.72;;;13.58;72.94
24160;BME280;62385;41.594;23.808;2023-02-28T14:43:19;95821.72;;;13.72;73.14
24160;BME280;62385;41.594;23.808;2023-02-28T14:45:50;95832.09;;;13.67;72.42
24160;BME280;62385;41.594;23.808;2023-02-28T14:48:19;95838.09;;;13.69;72.56
24160;BME280;62385;41.594;23.808;2023-02-28T14:50:54;95838.50;;;13.58;73.39
24160;BME280;62385;41.594;23.808;2023-02-28T14:53:22;95835.59;;;13.53;73.53
24160;BME280;62385;41.594;23.808;2023-02-28T14:55:49;95839.31;;;13.44;72.96
24160;BME280;62385;41.594;23.808;2023-02-28T14:58:30;95841.09;;;13.52;74.05
24160;BME280;62385;41.594;23.808;2023-02-28T15:00:59;95829.84;;;13.19;74.52
24160;BME280;62385;41.594;23.808;2023-02-28T15:03:32;95838.31;;;13.00;75.91
24160;BME280;62385;41.594;23.808;2023-02-28T15:06:03;95843.91;;;12.82;75.16
24160;BME280;62385;41.594;23.808;2023-02-28T15:08:30;95847.25;;;12.76;76.12
24160;BME280;62385;41.594;23.808;2023-02-28T15:11:07;95837.91;;;12.80;76.36
24160;BME280;62385;41.594;23.808;2023-02-28T15:13:45;95839.47;;;12.74;76.36
24160;BME280;62385;41.594;23.808;2023-02-28T15:16:25;95837.06;;;12.57;77.28